sensor_id;sensor_type;location;lat;lon;timestamp;pressure;altitude;pressure_sealevel;temperature;humidity
42111;BME280;27766;52.174;5.456;2023-02-15T00:00:52;102858.69;;;1.84;100.00
42111;BME280;27766;52.174;5.456;2023-02-15T00:03:21;102847.59;;;1.84;100.00
42111;BME280;27766;52.174;5.456;2023-02-15T00:05:48;102834.91;;;1.75;100.00
42111;BME280;27766;52.174;5.456;2023-02-15T00:08:15;102839.53;;;1.79;100.00
42111;BME280;27766;52.174;5.456;2023-02-15T00:10:42;102833.28;;;1.76;100.00
42111;BME280;27766;52.174;5.456;2023-02-15T00:13:09;102832.25;;;1.73;100.00
42111;BME280;27766;52.174;5.456;2023-02-15T00:15:36;102834.41;;;1.69;100.00
42111;BME280;27766;52.174;5.456;2023-02-15T00:18:02;102831.56;;;1.66;100.00
42111;BME280;27766;52.174;5.456;2023-02-15T00:20:29;102832.47;;;1.66;100.00
42111;BME280;27766;52.174;5.456;2023-02-15T00:22:56;102833.72;;;1.61;100.00
42111;BME280;27766;52.174;5.456;2023-02-15T00:25:23;102839.06;;;1.54;100.00
42111;BME280;27766;52.174;5.456;2023-02-15T00:27:50;102832.03;;;1.51;100.00
42111;BME280;27766;52.174;5.456;2023-02-15T00:30:17;102828.59;;;1.51;100.00
42111;BME280;27766;52.174;5.456;2023-02-15T00:32:44;102833.31;;;1.46;100.00
42111;BME280;27766;52.174;5.456;2023-02-15T00:35:10;102831.22;;;1.42;100.00
42111;BME280;27766;52.174;5.456;2023-02-15T00:37:37;102832.78;;;1.40;100.00
42111;BME280;27766;52.174;5.456;2023-02-15T00:40:04;102824.59;;;1.44;100.00
42111;BME280;27766;52.174;5.456;2023-02-15T00:42:31;102819.16;;;1.50;100.00
42111;BME280;27766;52.174;5.456;2023-02-15T00:44:58;102818.50;;;1.52;100.00
42111;BME280;27766;52.174;5.456;2023-02-15T00:47:25;102811.63;;;1.51;100.00
42111;BME280;27766;52.174;5.456;2023-02-15T00:49:52;102811.63;;;1.51;100.00
42111;BME280;27766;52.174;5.456;2023-02-15T00:52:19;102797.06;;;1.50;100.00
42111;BME280;27766;52.174;5.456;2023-02-15T00:54:45;102800.59;;;1.42;100.00
42111;BME280;27766;52.174;5.456;2023-02-15T00:57:12;102809.28;;;1.34;100.00
42111;BME280;27766;52.174;5.456;2023-02-15T00:59:39;102803.03;;;1.30;100.00
42111;BME280;27766;52.174;5.456;2023-02-15T01:02:06;102819.22;;;1.31;100.00
42111;BME280;27766;52.174;5.456;2023-02-15T01:04:33;102815.63;;;1.29;100.00
42111;BME280;27766;52.174;5.456;2023-02-15T01:07:00;102806.31;;;1.29;100.00
42111;BME280;27766;52.174;5.456;2023-02-15T01:09:28;102807.59;;;1.34;100.00
42111;BME280;27766;52.174;5.456;2023-02-15T01:11:55;102808.66;;;1.36;100.00
42111;BME280;27766;52.174;5.456;2023-02-15T01:14:22;102804.31;;;1.35;100.00
42111;BME280;27766;52.174;5.456;2023-02-15T01:16:49;102809.00;;;1.31;100.00
42111;BME280;27766;52.174;5.456;2023-02-15T01:19:15;102805.75;;;1.23;100.00
42111;BME280;27766;52.174;5.456;2023-02-15T01:21:42;102806.41;;;1.20;100.00
42111;BME280;27766;52.174;5.456;2023-02-15T01:24:12;102803.84;;;1.20;100.00
42111;BME280;27766;52.174;5.456;2023-02-15T01:26:39;102797.09;;;1.21;100.00
42111;BME280;27766;52.174;5.456;2023-02-15T01:29:06;102800.88;;;1.16;100.00
42111;BME280;27766;52.174;5.456;2023-02-15T01:31:33;102797.03;;;1.10;100.00
42111;BME280;27766;52.174;5.456;2023-02-15T01:34:00;102793.88;;;1.13;100.00
42111;BME280;27766;52.174;5.456;2023-02-15T01:36:27;102782.66;;;1.11;100.00
42111;BME280;27766;52.174;5.456;2023-02-15T01:38:53;102787.19;;;1.05;100.00
42111;BME280;27766;52.174;5.456;2023-02-15T01:41:20;102781.97;;;1.03;100.00
42111;BME280;27766;52.174;5.456;2023-02-15T01:43:53;102777.63;;;1.02;100.00
42111;BME280;27766;52.174;5.456;2023-02-15T01:46:54;102772.53;;;1.02;100.00
42111;BME280;27766;52.174;5.456;2023-02-15T01:49:17;102770.88;;;1.03;100.00
42111;BME280;27766;52.174;5.456;2023-02-15T01:51:45;102768.94;;;1.00;100.00
42111;BME280;27766;52.174;5.456;2023-02-15T01:54:16;102761.78;;;0.96;100.00
42111;BME280;27766;52.174;5.456;2023-02-15T01:56:45;102763.59;;;0.97;100.00
42111;BME280;27766;52.174;5.456;2023-02-15T01:59:15;102764.22;;;0.94;100.00
42111;BME280;27766;52.174;5.456;2023-02-15T02:01:43;102772.00;;;0.96;100.00
42111;BME280;27766;52.174;5.456;2023-02-15T02:04:15;102771.28;;;0.88;100.00
42111;BME280;27766;52.174;5.456;2023-02-15T02:06:46;102765.19;;;0.86;100.00
42111;BME280;27766;52.174;5.456;2023-02-15T02:09:14;102766.06;;;0.87;100.00
42111;BME280;27766;52.174;5.456;2023-02-15T02:11:42;102757.38;;;0.85;100.00
42111;BME280;27766;52.174;5.456;2023-02-15T02:14:11;102761.72;;;0.86;100.00
42111;BME280;27766;52.174;5.456;2023-02-15T02:24:23;102752.28;;;0.85;100.00
42111;BME280;27766;52.174;5.456;2023-02-15T02:27:12;102747.06;;;0.83;100.00
42111;BME280;27766;52.174;5.456;2023-02-15T02:35:26;102721.34;;;0.61;100.00
42111;BME280;27766;52.174;5.456;2023-02-15T02:38:01;102732.84;;;0.66;100.00
42111;BME280;27766;52.174;5.456;2023-02-15T02:48:35;102714.06;;;0.66;100.00
42111;BME280;27766;52.174;5.456;2023-02-15T02:51:03;102716.16;;;0.70;100.00
42111;BME280;27766;52.174;5.456;2023-02-15T02:53:30;102711.19;;;0.71;100.00
42111;BME280;27766;52.174;5.456;2023-02-15T02:56:11;102690.13;;;0.63;100.00
42111;BME280;27766;52.174;5.456;2023-02-15T02:58:46;102701.38;;;0.76;100.00
42111;BME280;27766;52.174;5.456;2023-02-15T03:01:20;102697.19;;;0.76;100.00
42111;BME280;27766;52.174;5.456;2023-02-15T03:04:02;102698.56;;;0.73;100.00
42111;BME280;27766;52.174;5.456;2023-02-15T03:06:35;102698.44;;;0.71;100.00
42111;BME280;27766;52.174;5.456;2023-02-15T03:09:12;102696.63;;;0.70;100.00
42111;BME280;27766;52.174;5.456;2023-02-15T03:11:43;102695.88;;;0.71;100.00
42111;BME280;27766;52.174;5.456;2023-02-15T03:14:12;102688.88;;;0.69;100.00
42111;BME280;27766;52.174;5.456;2023-02-15T03:16:40;102693.34;;;0.71;100.00
42111;BME280;27766;52.174;5.456;2023-02-15T03:19:09;102681.50;;;0.72;100.00
42111;BME280;27766;52.174;5.456;2023-02-15T03:21:49;102678.94;;;0.72;100.00
42111;BME280;27766;52.174;5.456;2023-02-15T03:24:25;102673.28;;;0.66;100.00
42111;BME280;27766;52.174;5.456;2023-02-15T03:26:53;102670.00;;;0.67;100.00
42111;BME280;27766;52.174;5.456;2023-02-15T03:29:21;102673.56;;;0.69;100.00
42111;BME280;27766;52.174;5.456;2023-02-15T03:31:51;102671.38;;;0.63;100.00
42111;BME280;27766;52.174;5.456;2023-02-15T03:34:20;102673.03;;;0.62;100.00
42111;BME280;27766;52.174;5.456;2023-02-15T03:39:18;102663.09;;;0.66;100.00
42111;BME280;27766;52.174;5.456;2023-02-15T03:41:49;102653.06;;;0.67;100.00
42111;BME280;27766;52.174;5.456;2023-02-15T03:44:22;102665.28;;;0.71;100.00
42111;BME280;27766;52.174;5.456;2023-02-15T03:51:56;102657.00;;;0.74;100.00
42111;BME280;27766;52.174;5.456;2023-02-15T03:54:31;102668.13;;;0.74;100.00
42111;BME280;27766;52.174;5.456;2023-02-15T03:57:10;102663.66;;;0.72;100.00
42111;BME280;27766;52.174;5.456;2023-02-15T03:59:57;102661.34;;;0.65;100.00
42111;BME280;27766;52.174;5.456;2023-02-15T04:05:18;102656.59;;;0.59;100.00
42111;BME280;27766;52.174;5.456;2023-02-15T04:07:45;102650.34;;;0.55;100.00
42111;BME280;27766;52.174;5.456;2023-02-15T04:10:12;102646.28;;;0.57;100.00
42111;BME280;27766;52.174;5.456;2023-02-15T04:12:58;102642.47;;;0.62;100.00
42111;BME280;27766;52.174;5.456;2023-02-15T04:15:24;102629.94;;;0.55;100.00
42111;BME280;27766;52.174;5.456;2023-02-15T04:18:10;102644.25;;;0.63;100.00
42111;BME280;27766;52.174;5.456;2023-02-15T04:20:37;102642.19;;;0.59;100.00
42111;BME280;27766;52.174;5.456;2023-02-15T04:23:22;102650.81;;;0.51;100.00
42111;BME280;27766;52.174;5.456;2023-02-15T04:26:07;102649.22;;;0.43;100.00
42111;BME280;27766;52.174;5.456;2023-02-15T04:28:34;102648.97;;;0.40;100.00
42111;BME280;27766;52.174;5.456;2023-02-15T04:31:01;102656.63;;;0.40;100.00
42111;BME280;27766;52.174;5.456;2023-02-15T04:33:28;102645.47;;;0.48;100.00
42111;BME280;27766;52.174;5.456;2023-02-15T04:35:55;102640.47;;;0.50;100.00
42111;BME280;27766;52.174;5.456;2023-02-15T04:38:22;102640.91;;;0.54;100.00
42111;BME280;27766;52.174;5.456;2023-02-15T04:40:50;102641.03;;;0.56;100.00
42111;BME280;27766;52.174;5.456;2023-02-15T04:43:18;102628.63;;;0.50;100.00
42111;BME280;27766;52.174;5.456;2023-02-15T04:45:48;102632.09;;;0.51;100.00
42111;BME280;27766;52.174;5.456;2023-02-15T04:48:16;102626.34;;;0.53;100.00
42111;BME280;27766;52.174;5.456;2023-02-15T04:50:44;102626.47;;;0.55;100.00
42111;BME280;27766;52.174;5.456;2023-02-15T04:53:10;102621.38;;;0.55;100.00
42111;BME280;27766;52.174;5.456;2023-02-15T04:55:37;102624.09;;;0.56;100.00
42111;BME280;27766;52.174;5.456;2023-02-15T04:58:04;102621.03;;;0.60;100.00
42111;BME280;27766;52.174;5.456;2023-02-15T05:00:31;102616.84;;;0.61;100.00
42111;BME280;27766;52.174;5.456;2023-02-15T05:02:58;102616.22;;;0.63;100.00
42111;BME280;27766;52.174;5.456;2023-02-15T05:05:25;102613.03;;;0.66;100.00
42111;BME280;27766;52.174;5.456;2023-02-15T05:07:52;102617.50;;;0.69;100.00
42111;BME280;27766;52.174;5.456;2023-02-15T05:10:19;102616.00;;;0.71;100.00
42111;BME280;27766;52.174;5.456;2023-02-15T05:23:48;102605.94;;;0.83;100.00
42111;BME280;27766;52.174;5.456;2023-02-15T05:26:19;102604.16;;;0.82;100.00
42111;BME280;27766;52.174;5.456;2023-02-15T05:29:05;102612.84;;;0.84;100.00
42111;BME280;27766;52.174;5.456;2023-02-15T05:31:32;102605.19;;;0.84;100.00
42111;BME280;27766;52.174;5.456;2023-02-15T05:34:00;102611.06;;;0.83;100.00
42111;BME280;27766;52.174;5.456;2023-02-15T05:36:27;102608.63;;;0.84;100.00
42111;BME280;27766;52.174;5.456;2023-02-15T05:38:55;102612.97;;;0.85;100.00
42111;BME280;27766;52.174;5.456;2023-02-15T05:41:22;102609.38;;;0.83;100.00
42111;BME280;27766;52.174;5.456;2023-02-15T05:43:49;102604.91;;;0.81;100.00
42111;BME280;27766;52.174;5.456;2023-02-15T05:46:16;102612.28;;;0.77;100.00
42111;BME280;27766;52.174;5.456;2023-02-15T05:48:43;102601.22;;;0.77;100.00
42111;BME280;27766;52.174;5.456;2023-02-15T05:51:11;102609.63;;;0.76;100.00
42111;BME280;27766;52.174;5.456;2023-02-15T05:53:39;102597.63;;;0.75;100.00
42111;BME280;27766;52.174;5.456;2023-02-15T05:56:07;102601.69;;;0.73;100.00
42111;BME280;27766;52.174;5.456;2023-02-15T05:58:35;102604.88;;;0.70;100.00
42111;BME280;27766;52.174;5.456;2023-02-15T06:01:12;102599.66;;;0.69;100.00
42111;BME280;27766;52.174;5.456;2023-02-15T06:03:39;102602.97;;;0.68;100.00
42111;BME280;27766;52.174;5.456;2023-02-15T06:06:07;102600.16;;;0.65;100.00
42111;BME280;27766;52.174;5.456;2023-02-15T06:08:34;102593.53;;;0.67;100.00
42111;BME280;27766;52.174;5.456;2023-02-15T06:11:01;102600.41;;;0.68;100.00
42111;BME280;27766;52.174;5.456;2023-02-15T06:13:28;102600.41;;;0.68;100.00
42111;BME280;27766;52.174;5.456;2023-02-15T06:15:55;102601.03;;;0.65;100.00
42111;BME280;27766;52.174;5.456;2023-02-15T06:18:22;102600.16;;;0.65;100.00
42111;BME280;27766;52.174;5.456;2023-02-15T06:20:52;102592.38;;;0.63;100.00
42111;BME280;27766;52.174;5.456;2023-02-15T06:23:19;102588.94;;;0.62;100.00
42111;BME280;27766;52.174;5.456;2023-02-15T06:25:46;102582.16;;;0.63;100.00
42111;BME280;27766;52.174;5.456;2023-02-15T06:28:13;102567.88;;;0.55;100.00
42111;BME280;27766;52.174;5.456;2023-02-15T06:30:40;102582.16;;;0.63;100.00
42111;BME280;27766;52.174;5.456;2023-02-15T06:33:07;102582.94;;;0.62;100.00
42111;BME280;27766;52.174;5.456;2023-02-15T06:35:34;102588.81;;;0.61;100.00
42111;BME280;27766;52.174;5.456;2023-02-15T06:38:00;102587.91;;;0.60;100.00
42111;BME280;27766;52.174;5.456;2023-02-15T06:40:28;102589.56;;;0.60;100.00
42111;BME280;27766;52.174;5.456;2023-02-15T06:42:54;102592.13;;;0.60;100.00
42111;BME280;27766;52.174;5.456;2023-02-15T06:45:22;102587.66;;;0.57;100.00
42111;BME280;27766;52.174;5.456;2023-02-15T06:47:51;102587.91;;;0.60;100.00
42111;BME280;27766;52.174;5.456;2023-02-15T06:50:17;102588.53;;;0.58;100.00
42111;BME280;27766;52.174;5.456;2023-02-15T06:52:44;102591.84;;;0.57;100.00
42111;BME280;27766;52.174;5.456;2023-02-15T06:55:11;102588.25;;;0.55;100.00
42111;BME280;27766;52.174;5.456;2023-02-15T06:57:38;102593.22;;;0.53;100.00
42111;BME280;27766;52.174;5.456;2023-02-15T07:00:05;102583.03;;;0.53;100.00
42111;BME280;27766;52.174;5.456;2023-02-15T07:02:32;102593.88;;;0.51;100.00
42111;BME280;27766;52.174;5.456;2023-02-15T07:04:59;102580.84;;;0.47;100.00
42111;BME280;27766;52.174;5.456;2023-02-15T07:07:26;102579.22;;;0.48;100.00
42111;BME280;27766;52.174;5.456;2023-02-15T07:09:53;102583.53;;;0.49;100.00
42111;BME280;27766;52.174;5.456;2023-02-15T07:12:20;102576.91;;;0.51;100.00
42111;BME280;27766;52.174;5.456;2023-02-15T07:15:06;102581.25;;;0.52;100.00
42111;BME280;27766;52.174;5.456;2023-02-15T07:17:34;102578.06;;;0.55;100.00
42111;BME280;27766;52.174;5.456;2023-02-15T07:20:10;102587.91;;;0.60;100.00
42111;BME280;27766;52.174;5.456;2023-02-15T07:22:37;102580.00;;;0.57;100.00
42111;BME280;27766;52.174;5.456;2023-02-15T07:25:05;102581.00;;;0.59;100.00
42111;BME280;27766;52.174;5.456;2023-02-15T07:27:33;102579.78;;;0.65;100.00
42111;BME280;27766;52.174;5.456;2023-02-15T07:30:00;102574.94;;;0.68;100.00
42111;BME280;27766;52.174;5.456;2023-02-15T07:32:30;102573.41;;;0.70;100.00
42111;BME280;27766;52.174;5.456;2023-02-15T07:34:58;102566.00;;;0.73;100.00
42111;BME280;27766;52.174;5.456;2023-02-15T07:37:26;102555.28;;;0.67;100.00
42111;BME280;27766;52.174;5.456;2023-02-15T07:39:52;102565.81;;;0.80;100.00
42111;BME280;27766;52.174;5.456;2023-02-15T07:42:19;102555.84;;;0.83;100.00
42111;BME280;27766;52.174;5.456;2023-02-15T07:44:47;102549.22;;;0.85;100.00
42111;BME280;27766;52.174;5.456;2023-02-15T07:47:14;102546.44;;;0.92;100.00
42111;BME280;27766;52.174;5.456;2023-02-15T07:49:41;102545.16;;;0.98;100.00
42111;BME280;27766;52.174;5.456;2023-02-15T07:52:08;102546.47;;;1.03;100.00
42111;BME280;27766;52.174;5.456;2023-02-15T07:54:35;102545.06;;;1.06;100.00
42111;BME280;27766;52.174;5.456;2023-02-15T07:57:02;102544.41;;;1.09;100.00
42111;BME280;27766;52.174;5.456;2023-02-15T07:59:29;102543.13;;;1.14;100.00
42111;BME280;27766;52.174;5.456;2023-02-15T08:01:56;102546.19;;;1.20;100.00
42111;BME280;27766;52.174;5.456;2023-02-15T08:04:23;102539.28;;;1.19;100.00
42111;BME280;27766;52.174;5.456;2023-02-15T08:06:53;102543.91;;;1.23;100.00
42111;BME280;27766;52.174;5.456;2023-02-15T08:09:21;102542.22;;;1.24;100.00
42111;BME280;27766;52.174;5.456;2023-02-15T08:11:48;102539.84;;;1.25;100.00
42111;BME280;27766;52.174;5.456;2023-02-15T08:14:16;102540.97;;;1.29;100.00
42111;BME280;27766;52.174;5.456;2023-02-15T08:21:38;102530.25;;;1.44;100.00
42111;BME280;27766;52.174;5.456;2023-02-15T08:24:06;102542.38;;;1.46;100.00
42111;BME280;27766;52.174;5.456;2023-02-15T08:26:34;102539.56;;;1.53;100.00
42111;BME280;27766;52.174;5.456;2023-02-15T08:29:01;102536.47;;;1.57;100.00
42111;BME280;27766;52.174;5.456;2023-02-15T08:31:28;102529.34;;;1.64;100.00
42111;BME280;27766;52.174;5.456;2023-02-15T08:33:56;102528.81;;;1.68;100.00
42111;BME280;27766;52.174;5.456;2023-02-15T08:36:24;102524.19;;;1.74;100.00
42111;BME280;27766;52.174;5.456;2023-02-15T08:38:51;102524.69;;;1.80;100.00
42111;BME280;27766;52.174;5.456;2023-02-15T08:41:20;102522.50;;;1.85;100.00
42111;BME280;27766;52.174;5.456;2023-02-15T08:43:48;102517.91;;;1.91;100.00
42111;BME280;27766;52.174;5.456;2023-02-15T08:46:15;102511.50;;;1.96;100.00
42111;BME280;27766;52.174;5.456;2023-02-15T08:48:43;102523.50;;;1.97;100.00
42111;BME280;27766;52.174;5.456;2023-02-15T08:53:40;102516.69;;;2.08;100.00
42111;BME280;27766;52.174;5.456;2023-02-15T08:56:08;102508.75;;;2.15;100.00
42111;BME280;27766;52.174;5.456;2023-02-15T08:58:36;102509.59;;;2.26;100.00
42111;BME280;27766;52.174;5.456;2023-02-15T09:01:10;102511.94;;;2.35;100.00
42111;BME280;27766;52.174;5.456;2023-02-15T09:03:38;102512.94;;;2.47;100.00
42111;BME280;27766;52.174;5.456;2023-02-15T09:06:05;102498.94;;;2.54;100.00
42111;BME280;27766;52.174;5.456;2023-02-15T09:08:32;102508.75;;;2.60;100.00
42111;BME280;27766;52.174;5.456;2023-02-15T09:13:33;102496.31;;;2.87;100.00
42111;BME280;27766;52.174;5.456;2023-02-15T09:16:01;102507.13;;;2.94;100.00
42111;BME280;27766;52.174;5.456;2023-02-15T09:18:29;102503.59;;;3.04;100.00
42111;BME280;27766;52.174;5.456;2023-02-15T09:20:56;102498.81;;;3.09;100.00
42111;BME280;27766;52.174;5.456;2023-02-15T09:23:29;102501.19;;;3.17;100.00
42111;BME280;27766;52.174;5.456;2023-02-15T09:25:56;102500.38;;;3.19;100.00
42111;BME280;27766;52.174;5.456;2023-02-15T09:28:23;102498.72;;;3.19;100.00
42111;BME280;27766;52.174;5.456;2023-02-15T09:30:50;102497.50;;;3.26;100.00
42111;BME280;27766;52.174;5.456;2023-02-15T09:33:17;102492.53;;;3.39;100.00
42111;BME280;27766;52.174;5.456;2023-02-15T09:35:44;102496.91;;;3.52;100.00
42111;BME280;27766;52.174;5.456;2023-02-15T09:38:11;102502.13;;;3.54;100.00
42111;BME280;27766;52.174;5.456;2023-02-15T09:40:39;102501.44;;;3.56;100.00
42111;BME280;27766;52.174;5.456;2023-02-15T09:43:15;102503.78;;;3.65;100.00
42111;BME280;27766;52.174;5.456;2023-02-15T09:45:48;102506.13;;;3.74;100.00
42111;BME280;27766;52.174;5.456;2023-02-15T09:48:32;102498.91;;;3.80;100.00
42111;BME280;27766;52.174;5.456;2023-02-15T09:58:59;102494.41;;;4.13;100.00
42111;BME280;27766;52.174;5.456;2023-02-15T10:09:00;102492.91;;;4.40;100.00
42111;BME280;27766;52.174;5.456;2023-02-15T10:14:23;102511.31;;;4.60;100.00
42111;BME280;27766;52.174;5.456;2023-02-15T10:16:56;102513.84;;;4.72;100.00
42111;BME280;27766;52.174;5.456;2023-02-15T10:19:33;102510.22;;;4.82;100.00
42111;BME280;27766;52.174;5.456;2023-02-15T10:22:09;102507.63;;;4.94;100.00
42111;BME280;27766;52.174;5.456;2023-02-15T10:27:28;102509.59;;;5.23;100.00
42111;BME280;27766;52.174;5.456;2023-02-15T10:32:33;102506.44;;;5.41;100.00
42111;BME280;27766;52.174;5.456;2023-02-15T10:35:10;102514.88;;;5.51;100.00
42111;BME280;27766;52.174;5.456;2023-02-15T10:40:10;102514.66;;;5.75;100.00
42111;BME280;27766;52.174;5.456;2023-02-15T10:42:52;102513.28;;;5.80;100.00
42111;BME280;27766;52.174;5.456;2023-02-15T10:45:28;102517.94;;;5.86;100.00
42111;BME280;27766;52.174;5.456;2023-02-15T10:48:13;102516.06;;;5.97;100.00
42111;BME280;27766;52.174;5.456;2023-02-15T10:50:46;102519.13;;;6.05;100.00
42111;BME280;27766;52.174;5.456;2023-02-15T11:03:50;102504.41;;;6.44;100.00
42111;BME280;27766;52.174;5.456;2023-02-15T11:06:21;102498.53;;;6.60;100.00
42111;BME280;27766;52.174;5.456;2023-02-15T11:08:54;102502.16;;;6.63;100.00
42111;BME280;27766;52.174;5.456;2023-02-15T11:11:32;102496.72;;;6.72;100.00
42111;BME280;27766;52.174;5.456;2023-02-15T11:14:02;102495.56;;;6.82;100.00
42111;BME280;27766;52.174;5.456;2023-02-15T11:16:34;102496.22;;;6.93;100.00
42111;BME280;27766;52.174;5.456;2023-02-15T11:19:07;102495.16;;;7.04;100.00
42111;BME280;27766;52.174;5.456;2023-02-15T11:21:39;102494.63;;;7.10;100.00
42111;BME280;27766;52.174;5.456;2023-02-15T11:24:13;102479.56;;;7.16;100.00
42111;BME280;27766;52.174;5.456;2023-02-15T11:26:44;102482.47;;;7.22;100.00
42111;BME280;27766;52.174;5.456;2023-02-15T11:29:21;102482.19;;;7.33;100.00
42111;BME280;27766;52.174;5.456;2023-02-15T11:31:51;102470.38;;;7.36;100.00
42111;BME280;27766;52.174;5.456;2023-02-15T11:36:54;102467.47;;;7.45;100.00
42111;BME280;27766;52.174;5.456;2023-02-15T11:39:22;102462.66;;;7.51;100.00
42111;BME280;27766;52.174;5.456;2023-02-15T11:41:52;102448.25;;;7.55;100.00
42111;BME280;27766;52.174;5.456;2023-02-15T11:44:22;102450.44;;;7.64;100.00
42111;BME280;27766;52.174;5.456;2023-02-15T11:46:56;102435.16;;;7.67;100.00
42111;BME280;27766;52.174;5.456;2023-02-15T11:49:30;102443.00;;;7.85;100.00
42111;BME280;27766;52.174;5.456;2023-02-15T11:51:57;102430.69;;;7.96;100.00
42111;BME280;27766;52.174;5.456;2023-02-15T11:54:27;102426.84;;;8.04;100.00
42111;BME280;27766;52.174;5.456;2023-02-15T11:59:44;102424.38;;;8.22;100.00
42111;BME280;27766;52.174;5.456;2023-02-15T12:02:17;102407.34;;;8.26;100.00
42111;BME280;27766;52.174;5.456;2023-02-15T12:04:52;102407.84;;;8.35;100.00
42111;BME280;27766;52.174;5.456;2023-02-15T12:07:23;102407.34;;;8.42;100.00
42111;BME280;27766;52.174;5.456;2023-02-15T12:12:34;102401.34;;;8.58;100.00
42111;BME280;27766;52.174;5.456;2023-02-15T12:15:03;102409.28;;;8.63;100.00
42111;BME280;27766;52.174;5.456;2023-02-15T12:17:32;102410.56;;;8.71;100.00
42111;BME280;27766;52.174;5.456;2023-02-15T12:20:00;102404.25;;;8.82;100.00
42111;BME280;27766;52.174;5.456;2023-02-15T12:22:29;102396.88;;;8.90;100.00
42111;BME280;27766;52.174;5.456;2023-02-15T12:24:58;102397.13;;;8.95;100.00
42111;BME280;27766;52.174;5.456;2023-02-15T12:27:27;102398.38;;;9.03;100.00
42111;BME280;27766;52.174;5.456;2023-02-15T12:29:56;102387.31;;;9.06;100.00
42111;BME280;27766;52.174;5.456;2023-02-15T12:32:26;102384.66;;;9.04;100.00
42111;BME280;27766;52.174;5.456;2023-02-15T12:37:39;102392.47;;;9.24;100.00
42111;BME280;27766;52.174;5.456;2023-02-15T12:40:26;102394.88;;;9.37;100.00
42111;BME280;27766;52.174;5.456;2023-02-15T12:42:57;102393.66;;;9.48;100.00
42111;BME280;27766;52.174;5.456;2023-02-15T12:45:28;102396.41;;;9.52;100.00
42111;BME280;27766;52.174;5.456;2023-02-15T12:50:41;102383.09;;;9.62;100.00
42111;BME280;27766;52.174;5.456;2023-02-15T12:53:16;102374.66;;;9.66;100.00
42111;BME280;27766;52.174;5.456;2023-02-15T12:56:20;102382.59;;;9.69;100.00
42111;BME280;27766;52.174;5.456;2023-02-15T12:58:39;102372.38;;;9.72;100.00
42111;BME280;27766;52.174;5.456;2023-02-15T13:01:14;102374.41;;;9.79;100.00
42111;BME280;27766;52.174;5.456;2023-02-15T13:04:00;102380.69;;;9.85;100.00
42111;BME280;27766;52.174;5.456;2023-02-15T13:06:31;102365.91;;;9.82;100.00
42111;BME280;27766;52.174;5.456;2023-02-15T13:09:19;102370.19;;;9.81;100.00
42111;BME280;27766;52.174;5.456;2023-02-15T13:11:46;102375.59;;;9.86;100.00
42111;BME280;27766;52.174;5.456;2023-02-15T13:14:16;102363.03;;;9.76;100.00
42111;BME280;27766;52.174;5.456;2023-02-15T13:16:44;102363.53;;;9.67;100.00
42111;BME280;27766;52.174;5.456;2023-02-15T13:19:13;102358.19;;;9.64;100.00
42111;BME280;27766;52.174;5.456;2023-02-15T13:21:43;102348.13;;;9.70;100.00
42111;BME280;27766;52.174;5.456;2023-02-15T13:24:15;102344.88;;;9.74;100.00
42111;BME280;27766;52.174;5.456;2023-02-15T13:26:42;102348.38;;;9.94;100.00
42111;BME280;27766;52.174;5.456;2023-02-15T13:29:33;102340.53;;;9.93;100.00
42111;BME280;27766;52.174;5.456;2023-02-15T13:32:11;102347.56;;;9.95;100.00
42111;BME280;27766;52.174;5.456;2023-02-15T13:34:39;102352.03;;;10.00;100.00
42111;BME280;27766;52.174;5.456;2023-02-15T13:42:23;102346.19;;;10.04;100.00
42111;BME280;27766;52.174;5.456;2023-02-15T13:47:22;102337.00;;;10.10;100.00
42111;BME280;27766;52.174;5.456;2023-02-15T13:50:10;102331.69;;;10.07;100.00
42111;BME280;27766;52.174;5.456;2023-02-15T13:52:47;102331.97;;;10.13;100.00
42111;BME280;27766;52.174;5.456;2023-02-15T13:55:25;102326.91;;;10.17;100.00
42111;BME280;27766;52.174;5.456;2023-02-15T14:00:25;102327.59;;;10.12;100.00
42111;BME280;27766;52.174;5.456;2023-02-15T14:03:02;102332.88;;;10.16;100.00
42111;BME280;27766;52.174;5.456;2023-02-15T14:08:11;102318.47;;;10.21;100.00
42111;BME280;27766;52.174;5.456;2023-02-15T14:10:45;102319.44;;;10.23;100.00
42111;BME280;27766;52.174;5.456;2023-02-15T14:13:27;102321.31;;;10.27;100.00
42111;BME280;27766;52.174;5.456;2023-02-15T14:18:42;102327.91;;;10.20;100.00
42111;BME280;27766;52.174;5.456;2023-02-15T14:27:12;102315.88;;;10.21;100.00
42111;BME280;27766;52.174;5.456;2023-02-15T14:31:54;102317.84;;;10.26;100.00
42111;BME280;27766;52.174;5.456;2023-02-15T14:34:27;102322.34;;;10.30;100.00
42111;BME280;27766;52.174;5.456;2023-02-15T14:36:57;102327.44;;;10.29;100.00
42111;BME280;27766;52.174;5.456;2023-02-15T14:45:38;102312.69;;;10.26;100.00
42111;BME280;27766;52.174;5.456;2023-02-15T14:48:15;102319.03;;;10.35;100.00
42111;BME280;27766;52.174;5.456;2023-02-15T14:50:45;102311.94;;;10.29;100.00
42111;BME280;27766;52.174;5.456;2023-02-15T14:55:42;102312.84;;;10.31;100.00
42111;BME280;27766;52.174;5.456;2023-02-15T14:58:12;102301.81;;;10.35;100.00
42111;BME280;27766;52.174;5.456;2023-02-15T15:00:40;102312.13;;;10.34;100.00
42111;BME280;27766;52.174;5.456;2023-02-15T15:03:12;102317.97;;;10.29;100.00
42111;BME280;27766;52.174;5.456;2023-02-15T15:05:50;102319.53;;;10.26;100.00
42111;BME280;27766;52.174;5.456;2023-02-15T15:08:22;102315.13;;;10.23;100.00
42111;BME280;27766;52.174;5.456;2023-02-15T15:10:52;102318.47;;;10.21;100.00
42111;BME280;27766;52.174;5.456;2023-02-15T15:18:58;102313.97;;;10.17;100.00
42111;BME280;27766;52.174;5.456;2023-02-15T15:24:11;102316.91;;;10.05;100.00
42111;BME280;27766;52.174;5.456;2023-02-15T15:29:43;102320.13;;;9.99;100.00
42111;BME280;27766;52.174;5.456;2023-02-15T15:32:09;102317.41;;;9.96;100.00